Terminal Aerodrome Forecast
Issued by NWS

Home | Current Version | Previous Version | Text Only | Print | Product List | Glossary On
Versions: 1 2 3 4 5 6 7 8 9 10 11 12 13 14 15 16 17 18 19
307
FTUS43 KAPX 252320
TAFTVC
TAF
KTVC 252320Z 2600/2624 23014G22KT P6SM SCT040
     FM260500 25012G20KT P6SM BKN030
     FM260800 26010G19KT P6SM BKN035
     FM261000 26008KT P6SM BKN025
     FM261200 25008KT P6SM SCT025
     FM261400 24009KT P6SM FEW250
     FM262300 21007KT P6SM FEW200=

USA.gov is the U.S. government's official web portal to all federal, state and local government web resources and services.